American Integrity — WDD2875 — position and weather

sailwx.info

Track history (hours):
 
Tides and Currents Weather Stations Pressure Air Temp Water Temp Dewpoint Dewpoint Depression Visibility Wind Speed Wind Dir Waves Ship Positions

American Integrity

Owner: American Steamship Company, Williamsville, NY. More information available from US FCC via Universal Licensing System and Coast Guard Vessel Documentation Center.

Last reported at 2015-Apr-18 18:33 UTC. Time now 2015-Apr-18 19:23 UTC.
Position N 46°46' W 092°06'.

; draft 8 m.

Type: Cargo ship. MMSI: 367120990.

Date/timePositionNaut miles runAvg speedWind from/ knotsBaromVisibWave heightAir tempDewpointWater temp
2015-Apr-18 18:33N 46°46' W 092°06'7 7.2
2015-Apr-18 17:33N 46°50' W 091°57'1313.5
2015-Apr-18 16:33N 46°57' W 091°40'1110.7
2015-Apr-18 15:34N 47°02' W 091°26'26510.1
2015-Apr-17 13:24N 46°49' W 084°59'910.6
2015-Apr-17 12:33N 46°42' W 084°50'1111.4
2015-Apr-17 11:33N 46°33' W 084°41'10 9.9
2015-Apr-17 10:33N 46°28' W 084°29'7 3.7
2015-Apr-17 08:31N 46°29' W 084°18'7 7.8
2015-Apr-17 07:33N 46°23' W 084°13'10 7.2
2015-Apr-17 06:11N 46°14' W 084°07'7 9.9
2015-Apr-17 05:27N 46°08' W 084°01'910.1
2015-Apr-17 04:31N 46°00' W 083°53'1212.5
2015-Apr-17 03:33N 45°49' W 083°47'1312.8
2015-Apr-17 02:33N 45°42' W 083°31'  
2015-Apr-12 17:24N 45°57' W 083°54'12 9.3
2015-Apr-12 16:06N 46°08' W 084°01'16 6.1
2015-Apr-12 13:24N 46°22' W 084°13'20 2.0
2015-Apr-12 03:19N 46°31' W 084°39'3 4.1
2015-Apr-12 02:33N 46°34' W 084°42'  
2015-Apr-09 21:33N 47°00' W 091°34'1211.9
2015-Apr-09 20:33N 46°53' W 091°48'1010.3
2015-Apr-09 19:33N 46°48' W 092°01'4 4.1
2015-Apr-09 18:33N 46°45' W 092°06'0 0.3
2015-Apr-09 17:33N 46°46' W 092°06'0 0.0
2015-Apr-09 16:33N 46°46' W 092°06'0 0.4
2015-Apr-09 15:33N 46°45' W 092°06'0 0.0
2015-Apr-09 14:33N 46°45' W 092°06'0 0.0
2015-Apr-09 13:32N 46°45' W 092°06'0 0.0
2015-Apr-09 12:33N 46°45' W 092°06'0 0.0
2015-Apr-09 11:33N 46°45' W 092°06'0 0.0
2015-Apr-09 10:33N 46°45' W 092°06'0 0.0
2015-Apr-09 09:33N 46°45' W 092°06'0 0.0
2015-Apr-09 08:33N 46°45' W 092°06'0 0.0
2015-Apr-09 07:33N 46°45' W 092°06'0 0.0
2015-Apr-09 06:33N 46°45' W 092°06'0 0.0
2015-Apr-09 05:33N 46°45' W 092°06'0 0.0
2015-Apr-09 04:33N 46°45' W 092°06'0 0.0
2015-Apr-09 03:33N 46°45' W 092°06'0 0.0
2015-Apr-09 02:33N 46°45' W 092°06'0 0.0
2015-Apr-09 01:33N 46°45' W 092°06'0 0.0
2015-Apr-09 00:33N 46°45' W 092°06'0 0.0
2015-Apr-08 23:33N 46°45' W 092°06'0 0.0
2015-Apr-08 22:33N 46°45' W 092°06'0 0.0
2015-Apr-08 21:33N 46°45' W 092°06'0 0.0
2015-Apr-08 20:33N 46°45' W 092°06'0 0.0
2015-Apr-08 19:33N 46°45' W 092°06'0 0.0
2015-Apr-08 18:33N 46°45' W 092°06'  
Track history (hours):
 
Tides and Currents Weather Stations Pressure Air Temp Water Temp Dewpoint Dewpoint Depression Visibility Wind Speed Wind Dir Waves Ship Positions

American Integrity

Owner: American Steamship Company, Williamsville, NY. More information available from US FCC via Universal Licensing System and Coast Guard Vessel Documentation Center.

Last reported at 2015-Apr-18 18:33 UTC. Time now 2015-Apr-18 19:23 UTC.
Position N 46°46' W 092°06'.

; draft 8 m.

Type: Cargo ship. MMSI: 367120990.

Date/timePositionNaut miles runAvg speedWind from/ knotsBaromVisibWave heightAir tempDewpointWater temp
2015-Apr-18 18:33N 46°46' W 092°06'7 7.2
2015-Apr-18 17:33N 46°50' W 091°57'1313.5
2015-Apr-18 16:33N 46°57' W 091°40'1110.7
2015-Apr-18 15:34N 47°02' W 091°26'26510.1
2015-Apr-17 13:24N 46°49' W 084°59'910.6
2015-Apr-17 12:33N 46°42' W 084°50'1111.4
2015-Apr-17 11:33N 46°33' W 084°41'10 9.9
2015-Apr-17 10:33N 46°28' W 084°29'7 3.7
2015-Apr-17 08:31N 46°29' W 084°18'7 7.8
2015-Apr-17 07:33N 46°23' W 084°13'10 7.2
2015-Apr-17 06:11N 46°14' W 084°07'7 9.9
2015-Apr-17 05:27N 46°08' W 084°01'910.1
2015-Apr-17 04:31N 46°00' W 083°53'1212.5
2015-Apr-17 03:33N 45°49' W 083°47'1312.8
2015-Apr-17 02:33N 45°42' W 083°31'  
2015-Apr-12 17:24N 45°57' W 083°54'12 9.3
2015-Apr-12 16:06N 46°08' W 084°01'16 6.1
2015-Apr-12 13:24N 46°22' W 084°13'20 2.0
2015-Apr-12 03:19N 46°31' W 084°39'3 4.1
2015-Apr-12 02:33N 46°34' W 084°42'  
2015-Apr-09 21:33N 47°00' W 091°34'1211.9
2015-Apr-09 20:33N 46°53' W 091°48'1010.3
2015-Apr-09 19:33N 46°48' W 092°01'4 4.1
2015-Apr-09 18:33N 46°45' W 092°06'0 0.3
2015-Apr-09 17:33N 46°46' W 092°06'0 0.0
2015-Apr-09 16:33N 46°46' W 092°06'0 0.4
2015-Apr-09 15:33N 46°45' W 092°06'0 0.0
2015-Apr-09 14:33N 46°45' W 092°06'0 0.0
2015-Apr-09 13:32N 46°45' W 092°06'0 0.0
2015-Apr-09 12:33N 46°45' W 092°06'0 0.0
2015-Apr-09 11:33N 46°45' W 092°06'0 0.0
2015-Apr-09 10:33N 46°45' W 092°06'0 0.0
2015-Apr-09 09:33N 46°45' W 092°06'0 0.0
2015-Apr-09 08:33N 46°45' W 092°06'0 0.0
2015-Apr-09 07:33N 46°45' W 092°06'0 0.0
2015-Apr-09 06:33N 46°45' W 092°06'0 0.0
2015-Apr-09 05:33N 46°45' W 092°06'0 0.0
2015-Apr-09 04:33N 46°45' W 092°06'0 0.0
2015-Apr-09 03:33N 46°45' W 092°06'0 0.0
2015-Apr-09 02:33N 46°45' W 092°06'0 0.0
2015-Apr-09 01:33N 46°45' W 092°06'0 0.0
2015-Apr-09 00:33N 46°45' W 092°06'0 0.0
2015-Apr-08 23:33N 46°45' W 092°06'0 0.0
2015-Apr-08 22:33N 46°45' W 092°06'0 0.0
2015-Apr-08 21:33N 46°45' W 092°06'0 0.0
2015-Apr-08 20:33N 46°45' W 092°06'0 0.0
2015-Apr-08 19:33N 46°45' W 092°06'0 0.0
2015-Apr-08 18:33N 46°45' W 092°06'  

Dump ship's entire track history